Terminal Aerodrome Forecast
Issued by NWS Central Illinois

Home | Current Version | Previous Version | Text Only | Print | Product List | Glossary On
Versions: 1 2 3 4 5 6 7 8 9 10 11 12 13 14 15 16 17 18 19 20 21
000
FTUS43 KILX 231200 AAA
TAFPIA
TAF AMD
KPIA 231239Z 2313/2412 06003KT 4SM BR SKC
     FM231500 08005KT P6SM VCTS SCT025CB BKN120
     FM232000 12007KT P6SM SCT040 BKN250
     FM240100 10004KT P6SM BKN250
     FM240900 08003KT 3SM BR SCT250=

USA.gov is the U.S. government's official web portal to all federal, state and local government web resources and services.